createdAt,value
2017-04-17T00:00:52.128Z,4.57
2017-04-17T00:01:53.199Z,5.13
2017-04-17T00:02:54.181Z,4.10
2017-04-17T00:03:55.279Z,3.97
2017-04-17T00:04:56.441Z,4.03
2017-04-17T00:05:57.881Z,4.40
2017-04-17T00:06:59.047Z,4.13
2017-04-17T00:07:59.950Z,4.35
2017-04-17T00:09:00.840Z,4.22
2017-04-17T00:10:01.849Z,4.50
2017-04-17T00:11:03.661Z,4.60
2017-04-17T00:12:04.699Z,4.50
2017-04-17T00:13:05.799Z,4.48
2017-04-17T00:14:06.985Z,4.43
2017-04-17T00:15:08.256Z,4.60
2017-04-17T00:16:09.164Z,4.20
2017-04-17T00:17:10.329Z,5.20
2017-04-17T00:18:11.413Z,6.12
2017-04-17T00:19:12.498Z,5.45
2017-04-17T00:20:13.466Z,5.63
2017-04-17T00:21:15.095Z,6.38
2017-04-17T00:22:16.327Z,6.68
2017-04-17T00:23:17.524Z,5.47
2017-04-17T00:24:18.456Z,5.87
2017-04-17T00:25:19.603Z,7.22
2017-04-17T00:26:20.685Z,6.60
2017-04-17T00:27:22.153Z,6.65
2017-04-17T00:28:23.316Z,5.65
2017-04-17T00:29:25.324Z,5.15
2017-04-17T00:30:26.479Z,6.42
2017-04-17T00:31:27.580Z,5.90
2017-04-17T00:32:28.679Z,5.55
2017-04-17T00:33:29.821Z,4.77
2017-04-17T00:34:30.759Z,6.77
2017-04-17T00:35:31.828Z,6.03
2017-04-17T00:36:32.875Z,6.45
2017-04-17T00:37:34.029Z,6.50
2017-04-17T00:38:35.310Z,4.60
2017-04-17T00:39:36.437Z,6.02
2017-04-17T00:40:37.504Z,5.20
2017-04-17T00:41:38.810Z,5.33
2017-04-17T00:42:40.005Z,5.82
2017-04-17T00:43:41.196Z,5.33
2017-04-17T00:44:42.455Z,5.65
2017-04-17T00:45:43.656Z,5.97
2017-04-17T00:46:44.793Z,5.90
2017-04-17T00:47:46.211Z,5.92
2017-04-17T00:48:47.380Z,5.82
2017-04-17T00:49:48.307Z,5.78
2017-04-17T00:50:49.288Z,6.50
2017-04-17T00:51:50.391Z,5.92
2017-04-17T00:52:51.600Z,5.28
2017-04-17T00:53:52.603Z,6.78
2017-04-17T00:54:53.619Z,5.07
2017-04-17T00:55:54.768Z,6.52
2017-04-17T00:56:55.929Z,5.52
2017-04-17T00:57:56.882Z,5.30
2017-04-17T00:58:58.012Z,5.93
2017-04-17T00:59:59.222Z,6.83
2017-04-17T01:01:00.362Z,5.92
2017-04-17T01:02:01.413Z,5.25
2017-04-17T01:03:02.451Z,7.58
2017-04-17T01:04:03.562Z,6.67
2017-04-17T01:05:05.142Z,6.77
2017-04-17T01:06:06.269Z,6.33
2017-04-17T01:07:07.174Z,7.00
2017-04-17T01:08:08.095Z,5.52
2017-04-17T01:09:09.020Z,6.63
2017-04-17T01:10:10.213Z,6.65
2017-04-17T01:11:11.338Z,6.35
2017-04-17T01:12:12.692Z,7.20
2017-04-17T01:13:13.811Z,6.48
2017-04-17T01:14:14.746Z,6.00
2017-04-17T01:15:16.172Z,6.50
2017-04-17T01:16:17.068Z,7.53
2017-04-17T01:17:17.961Z,6.95
2017-04-17T01:18:19.080Z,6.13
2017-04-17T01:19:20.047Z,5.50
2017-04-17T01:20:21.232Z,7.07
2017-04-17T01:21:22.497Z,6.38
2017-04-17T01:22:23.513Z,6.08
2017-04-17T01:23:24.612Z,7.30
2017-04-17T01:24:25.744Z,5.58
2017-04-17T01:25:26.840Z,6.78
2017-04-17T01:26:27.935Z,7.47
2017-04-17T01:27:29.155Z,6.53
2017-04-17T01:28:30.145Z,7.60
2017-04-17T01:29:31.233Z,5.68
2017-04-17T01:30:32.183Z,6.18
2017-04-17T01:31:33.450Z,6.37
2017-04-17T01:32:34.559Z,6.42
2017-04-17T01:33:35.789Z,6.18
2017-04-17T01:34:36.925Z,5.88
2017-04-17T01:35:38.004Z,6.73
2017-04-17T01:36:39.120Z,6.77
2017-04-17T01:37:40.217Z,6.40
2017-04-17T01:38:41.285Z,6.02
2017-04-17T01:39:42.483Z,6.80
2017-04-17T01:40:43.616Z,6.65
2017-04-17T01:41:44.655Z,6.33
2017-04-17T01:42:45.774Z,6.52
2017-04-17T01:43:46.913Z,7.08
2017-04-17T01:44:48.095Z,6.70
2017-04-17T01:45:49.364Z,8.13
2017-04-17T01:46:50.532Z,7.12
2017-04-17T01:47:51.673Z,7.68
2017-04-17T01:48:52.738Z,6.60
2017-04-17T01:49:54.097Z,6.90
2017-04-17T01:50:55.249Z,6.65
2017-04-17T01:51:56.727Z,5.30
2017-04-17T01:52:57.836Z,7.25
2017-04-17T01:53:59.659Z,7.72
2017-04-17T01:55:00.837Z,8.08
2017-04-17T01:56:01.949Z,6.27
2017-04-17T01:57:04.094Z,6.33
2017-04-17T01:58:05.581Z,7.55
2017-04-17T01:59:07.062Z,5.98
2017-04-17T02:00:08.238Z,6.47
2017-04-17T02:01:09.537Z,6.17
2017-04-17T02:02:10.679Z,7.35
2017-04-17T02:03:11.657Z,6.90
2017-04-17T02:04:13.229Z,6.67
2017-04-17T02:05:14.801Z,6.00
2017-04-17T02:06:15.819Z,8.37
2017-04-17T02:07:16.948Z,6.45
2017-04-17T02:08:17.844Z,6.45
2017-04-17T02:09:18.757Z,6.43
2017-04-17T02:10:20.397Z,7.95
2017-04-17T02:11:21.291Z,6.40
2017-04-17T02:12:22.212Z,7.18
2017-04-17T02:13:23.306Z,7.22
2017-04-17T02:14:24.411Z,6.67
2017-04-17T02:15:25.369Z,7.38
2017-04-17T02:16:26.700Z,7.25
2017-04-17T02:17:27.787Z,6.65
2017-04-17T02:18:29.865Z,6.67
2017-04-17T02:19:31.327Z,6.88
2017-04-17T02:20:32.499Z,7.23
2017-04-17T02:21:33.934Z,6.95
2017-04-17T02:22:34.947Z,6.37
2017-04-17T02:23:36.037Z,6.27
2017-04-17T02:24:37.164Z,7.13
2017-04-17T02:25:38.367Z,7.68
2017-04-17T02:26:39.793Z,6.27
2017-04-17T02:27:41.094Z,7.28
2017-04-17T02:28:42.429Z,7.10
2017-04-17T02:29:44.037Z,5.48
2017-04-17T02:30:45.186Z,7.92
2017-04-17T02:31:46.173Z,5.88
2017-04-17T02:32:47.357Z,6.63
2017-04-17T02:33:48.802Z,6.02
2017-04-17T02:34:50.255Z,7.17
2017-04-17T02:35:51.484Z,5.90
2017-04-17T02:36:52.691Z,6.83
2017-04-17T02:37:54.019Z,5.87
2017-04-17T02:38:55.316Z,6.73
2017-04-17T02:39:56.490Z,5.87
2017-04-17T02:40:57.940Z,7.13
2017-04-17T02:41:58.998Z,6.88
2017-04-17T02:43:00.171Z,6.58
2017-04-17T02:44:01.394Z,7.48
2017-04-17T02:45:02.574Z,6.62
2017-04-17T02:46:03.804Z,5.97
2017-04-17T02:47:04.959Z,6.20
2017-04-17T02:48:06.128Z,7.00
2017-04-17T02:49:07.412Z,6.53
2017-04-17T02:50:08.567Z,7.08
2017-04-17T02:51:09.680Z,6.60
2017-04-17T02:52:10.857Z,6.35
2017-04-17T02:53:12.001Z,7.15
2017-04-17T02:54:13.621Z,7.00
2017-04-17T02:55:14.728Z,7.58
2017-04-17T02:56:15.894Z,7.02
2017-04-17T02:57:17.099Z,5.80
2017-04-17T02:58:18.296Z,7.05
2017-04-17T02:59:19.642Z,5.88
2017-04-17T03:00:21.533Z,6.15
2017-04-17T03:01:22.507Z,6.72
2017-04-17T03:02:24.414Z,6.80
2017-04-17T03:03:25.759Z,5.62
2017-04-17T03:04:26.720Z,6.83
2017-04-17T03:05:27.921Z,6.73
2017-04-17T03:06:29.018Z,7.47
2017-04-17T03:07:30.199Z,7.10
2017-04-17T03:08:31.501Z,5.80
2017-04-17T03:09:32.784Z,7.07
2017-04-17T03:10:35.630Z,6.07
2017-04-17T03:11:37.058Z,6.53
2017-04-17T03:12:38.364Z,5.63
2017-04-17T03:13:39.407Z,6.77
2017-04-17T03:14:40.859Z,7.10
2017-04-17T03:15:42.184Z,5.88
2017-04-17T03:16:43.425Z,5.63
2017-04-17T03:17:44.680Z,5.08
2017-04-17T03:18:45.732Z,5.98
2017-04-17T03:19:47.036Z,6.72
2017-04-17T03:20:48.100Z,5.53
2017-04-17T03:21:49.463Z,6.62
2017-04-17T03:22:50.848Z,6.60
2017-04-17T03:23:52.088Z,7.17
2017-04-17T03:24:53.349Z,5.72
2017-04-17T03:25:54.823Z,5.58
2017-04-17T03:26:56.155Z,5.35
2017-04-17T03:27:57.416Z,5.85
2017-04-17T03:28:58.565Z,4.25
2017-04-17T03:29:59.982Z,4.82
2017-04-17T03:31:01.006Z,4.77
2017-04-17T03:32:01.994Z,5.70
2017-04-17T03:33:03.213Z,4.38
2017-04-17T03:34:04.292Z,5.78
2017-04-17T03:35:05.329Z,4.85
2017-04-17T03:36:06.553Z,4.33
2017-04-17T03:37:08.631Z,5.30
2017-04-17T03:38:09.600Z,4.68
2017-04-17T03:39:10.821Z,4.32
2017-04-17T03:40:11.942Z,5.20
2017-04-17T03:41:13.234Z,5.37
2017-04-17T03:42:14.932Z,4.57
2017-04-17T03:43:16.313Z,3.93
2017-04-17T03:44:17.532Z,5.08
2017-04-17T03:45:18.881Z,4.27
2017-04-17T03:46:20.125Z,3.72
2017-04-17T03:47:21.341Z,4.30
2017-04-17T03:48:22.544Z,3.82
2017-04-17T03:49:23.680Z,4.93
2017-04-17T03:50:24.734Z,3.88
2017-04-17T03:51:25.904Z,4.17
2017-04-17T03:52:27.081Z,4.22
2017-04-17T03:53:28.236Z,5.20
2017-04-17T03:54:29.157Z,4.50
2017-04-17T03:55:31.123Z,4.90
2017-04-17T03:56:32.235Z,4.05
2017-04-17T03:57:33.351Z,4.52
2017-04-17T03:58:34.600Z,4.17
2017-04-17T03:59:35.723Z,4.58
2017-04-17T04:00:36.993Z,4.52
2017-04-17T04:01:38.379Z,4.50
2017-04-17T04:02:39.512Z,4.80
2017-04-17T04:03:41.607Z,4.70
2017-04-17T04:04:42.841Z,4.58
2017-04-17T04:05:43.953Z,4.38
2017-04-17T04:06:45.228Z,4.08
2017-04-17T04:07:46.159Z,4.03
2017-04-17T04:08:47.285Z,4.73
2017-04-17T04:09:48.360Z,4.22
2017-04-17T04:10:50.747Z,4.75
2017-04-17T04:11:51.912Z,4.52
2017-04-17T04:12:53.047Z,4.42
2017-04-17T04:13:54.310Z,4.40
2017-04-17T04:14:55.380Z,4.43
2017-04-17T04:15:56.528Z,4.35
2017-04-17T04:16:57.724Z,5.25
2017-04-17T04:17:58.927Z,3.45
2017-04-17T04:19:00.040Z,4.12
2017-04-17T04:20:01.131Z,4.08
2017-04-17T04:21:02.339Z,4.58
2017-04-17T04:22:03.577Z,3.70
2017-04-17T04:23:04.666Z,4.32
2017-04-17T04:24:05.764Z,3.92
2017-04-17T04:25:06.916Z,3.92
2017-04-17T04:26:08.007Z,4.38
2017-04-17T04:27:10.015Z,4.13
2017-04-17T04:28:11.071Z,4.13
2017-04-17T04:29:12.148Z,5.57
2017-04-17T04:30:17.305Z,4.07
2017-04-17T04:31:18.194Z,4.07
2017-04-17T04:32:19.387Z,4.03
2017-04-17T04:33:20.464Z,4.22
2017-04-17T04:34:21.521Z,4.67
2017-04-17T04:35:22.588Z,4.18
2017-04-17T04:36:23.743Z,4.47
2017-04-17T04:37:24.897Z,4.43
2017-04-17T04:38:25.791Z,4.15
2017-04-17T04:39:26.848Z,4.35
2017-04-17T04:40:27.942Z,5.13
2017-04-17T04:41:29.016Z,4.97
2017-04-17T04:42:30.127Z,5.08
2017-04-17T04:43:31.115Z,4.70
2017-04-17T04:44:32.202Z,4.38
2017-04-17T04:45:33.274Z,4.03
2017-04-17T04:46:34.535Z,4.30
2017-04-17T04:47:35.640Z,5.45
2017-04-17T04:48:36.831Z,4.58
2017-04-17T04:49:38.017Z,4.65
2017-04-17T04:50:39.083Z,4.13
2017-04-17T04:51:40.269Z,3.73
2017-04-17T04:52:41.254Z,4.52
2017-04-17T04:53:42.309Z,4.23
2017-04-17T04:54:43.439Z,4.53
2017-04-17T04:55:44.530Z,4.65
2017-04-17T04:56:45.620Z,4.40
2017-04-17T04:57:46.717Z,3.77
2017-04-17T04:58:47.795Z,4.65
2017-04-17T04:59:49.120Z,4.87
2017-04-17T05:00:50.357Z,3.32
2017-04-17T05:01:51.494Z,3.90
2017-04-17T05:02:52.408Z,5.52
2017-04-17T05:03:53.567Z,3.62
2017-04-17T05:04:54.757Z,3.73
2017-04-17T05:05:55.856Z,4.25
2017-04-17T05:06:56.972Z,4.92
2017-04-17T05:07:58.119Z,3.83
2017-04-17T05:08:59.280Z,4.37
2017-04-17T05:10:00.271Z,3.68
2017-04-17T05:11:01.395Z,3.83
2017-04-17T05:12:02.469Z,4.70
2017-04-17T05:13:03.609Z,3.82
2017-04-17T05:14:04.684Z,4.00
2017-04-17T05:15:05.836Z,3.40
2017-04-17T05:16:06.929Z,3.43
2017-04-17T05:17:08.940Z,3.70
2017-04-17T05:18:10.019Z,3.92
2017-04-17T05:19:11.119Z,3.43
2017-04-17T05:20:12.313Z,3.13
2017-04-17T05:21:13.246Z,4.12
2017-04-17T05:22:14.374Z,3.55
2017-04-17T05:23:15.861Z,3.27
2017-04-17T05:24:17.009Z,3.95
2017-04-17T05:25:18.093Z,4.20
2017-04-17T05:26:19.215Z,3.20
2017-04-17T05:27:20.312Z,4.02
2017-04-17T05:28:21.376Z,3.82
2017-04-17T05:29:22.448Z,4.12
2017-04-17T05:30:23.667Z,3.30
2017-04-17T05:31:24.806Z,2.95
2017-04-17T05:32:25.902Z,3.50
2017-04-17T05:33:27.211Z,3.75
2017-04-17T05:34:28.326Z,3.12
2017-04-17T05:35:29.464Z,4.08
2017-04-17T05:36:30.927Z,3.85
2017-04-17T05:37:32.064Z,3.57
2017-04-17T05:38:33.018Z,3.48
2017-04-17T05:39:34.115Z,3.52
2017-04-17T05:40:35.495Z,3.68
2017-04-17T05:41:36.640Z,3.53
2017-04-17T05:42:38.104Z,3.33
2017-04-17T05:43:39.151Z,4.23
2017-04-17T05:44:40.239Z,3.63
2017-04-17T05:45:41.579Z,3.53
2017-04-17T05:46:42.875Z,3.78
2017-04-17T05:47:44.000Z,3.35
2017-04-17T05:48:45.241Z,3.32
2017-04-17T05:49:46.454Z,3.68
2017-04-17T05:50:47.524Z,3.72
2017-04-17T05:51:48.812Z,4.07
2017-04-17T05:52:50.361Z,3.98
2017-04-17T05:53:51.485Z,3.42
2017-04-17T05:54:52.569Z,3.08
2017-04-17T05:55:53.908Z,3.67
2017-04-17T05:56:55.168Z,3.25
2017-04-17T05:57:56.356Z,3.50
2017-04-17T05:58:57.779Z,4.15
2017-04-17T05:59:59.026Z,4.03
2017-04-17T06:01:00.526Z,4.20
2017-04-17T06:02:01.929Z,3.97
2017-04-17T06:03:03.178Z,4.27
2017-04-17T06:04:08.701Z,4.12
2017-04-17T06:05:11.655Z,4.10
2017-04-17T06:06:14.232Z,4.35
2017-04-17T06:07:16.218Z,3.80
2017-04-17T06:08:17.428Z,4.22
2017-04-17T06:09:18.672Z,4.20
2017-04-17T06:10:19.947Z,3.35
2017-04-17T06:11:21.201Z,3.58
2017-04-17T06:12:22.431Z,3.53
2017-04-17T06:13:24.442Z,4.10
2017-04-17T06:14:25.708Z,3.70
2017-04-17T06:15:26.859Z,4.42
2017-04-17T06:16:28.043Z,3.88
2017-04-17T06:17:29.439Z,3.92
2017-04-17T06:18:30.590Z,4.00
2017-04-17T06:19:31.733Z,3.83
2017-04-17T06:20:32.907Z,4.78
2017-04-17T06:21:34.115Z,3.05
2017-04-17T06:22:35.333Z,3.88
2017-04-17T06:23:36.571Z,4.12
2017-04-17T06:24:37.872Z,4.65
2017-04-17T06:25:39.323Z,3.90
2017-04-17T06:26:40.546Z,3.65
2017-04-17T06:27:41.789Z,3.15
2017-04-17T06:28:43.258Z,2.90
2017-04-17T06:29:44.489Z,3.23
2017-04-17T06:30:45.825Z,3.07
2017-04-17T06:31:47.063Z,3.27
2017-04-17T06:32:48.322Z,3.75
2017-04-17T06:33:49.616Z,3.45
2017-04-17T06:34:50.935Z,3.00
2017-04-17T06:35:52.198Z,3.37
2017-04-17T06:36:53.415Z,3.58
2017-04-17T06:37:54.843Z,3.52
2017-04-17T06:38:56.339Z,4.10
2017-04-17T06:39:57.796Z,4.10
2017-04-17T06:40:59.035Z,3.92
2017-04-17T06:42:00.192Z,3.25
2017-04-17T06:43:01.341Z,3.35
2017-04-17T06:44:02.544Z,3.72
2017-04-17T06:45:03.728Z,4.35
2017-04-17T06:46:05.338Z,3.70
2017-04-17T06:47:06.655Z,3.77
2017-04-17T06:48:07.896Z,3.37
2017-04-17T06:49:09.572Z,2.93
2017-04-17T06:50:12.173Z,3.38
2017-04-17T06:51:13.455Z,3.18
2017-04-17T06:52:14.635Z,3.10
2017-04-17T06:53:15.731Z,3.30
2017-04-17T06:54:16.956Z,3.50
2017-04-17T06:55:18.390Z,3.33
2017-04-17T06:56:20.156Z,4.12
2017-04-17T06:57:21.501Z,3.05
2017-04-17T06:58:22.676Z,3.15
2017-04-17T06:59:23.911Z,3.25
2017-04-17T07:00:25.391Z,4.55
2017-04-17T07:01:26.781Z,4.25
2017-04-17T07:02:29.128Z,5.02
2017-04-17T07:03:31.490Z,4.48
2017-04-17T07:04:32.789Z,5.15
2017-04-17T07:05:33.677Z,4.08
2017-04-17T07:06:35.057Z,4.68
2017-04-17T07:07:36.309Z,4.20
2017-04-17T07:08:37.741Z,4.93
2017-04-17T07:09:39.088Z,4.18
2017-04-17T07:10:40.255Z,3.85
2017-04-17T07:11:41.388Z,4.83
2017-04-17T07:12:42.977Z,3.75
2017-04-17T07:13:43.856Z,3.68
2017-04-17T07:14:45.549Z,4.62
2017-04-17T07:15:46.624Z,4.73
2017-04-17T07:16:47.847Z,6.12
2017-04-17T07:17:49.414Z,4.93
2017-04-17T07:18:50.985Z,4.98
2017-04-17T07:19:52.191Z,5.07
2017-04-17T07:20:53.393Z,4.97
2017-04-17T07:21:55.119Z,5.28
2017-04-17T07:22:56.336Z,5.27
2017-04-17T07:23:58.268Z,4.17
2017-04-17T07:24:59.624Z,4.48
2017-04-17T07:26:00.998Z,4.88
2017-04-17T07:27:02.235Z,5.02
2017-04-17T07:28:03.464Z,4.78
2017-04-17T07:29:04.652Z,5.00
2017-04-17T07:30:05.890Z,4.22
2017-04-17T07:31:07.055Z,5.22
2017-04-17T07:32:08.245Z,4.03
2017-04-17T07:33:09.540Z,3.50
2017-04-17T07:34:10.711Z,4.25
2017-04-17T07:35:11.928Z,4.13
2017-04-17T07:36:13.123Z,3.58
2017-04-17T07:37:14.319Z,3.75
2017-04-17T07:38:15.295Z,4.33
2017-04-17T07:39:16.903Z,4.10
2017-04-17T07:40:18.155Z,3.88
2017-04-17T07:41:19.187Z,4.27
2017-04-17T07:42:20.236Z,3.83
2017-04-17T07:43:21.371Z,3.87
2017-04-17T07:44:22.585Z,2.73
2017-04-17T07:45:23.768Z,3.62
2017-04-17T07:46:24.723Z,3.33
2017-04-17T07:47:26.024Z,2.63
2017-04-17T07:48:27.395Z,3.27
2017-04-17T07:49:28.689Z,3.07
2017-04-17T07:50:29.844Z,3.52
2017-04-17T07:51:30.925Z,4.20
2017-04-17T07:52:32.132Z,4.12
2017-04-17T07:53:33.459Z,4.22
2017-04-17T07:54:34.613Z,4.70
2017-04-17T07:55:35.821Z,6.08
2017-04-17T07:56:38.425Z,6.95
2017-04-17T07:57:40.484Z,5.83
2017-04-17T07:58:41.977Z,6.87
2017-04-17T07:59:43.442Z,6.22
2017-04-17T08:00:44.735Z,6.52
2017-04-17T08:01:45.919Z,5.97
2017-04-17T08:02:47.045Z,6.20
2017-04-17T08:03:48.876Z,5.75
2017-04-17T08:04:50.552Z,5.80
2017-04-17T08:05:52.557Z,6.45
2017-04-17T08:06:53.805Z,6.17
2017-04-17T08:07:55.731Z,7.77
2017-04-17T08:09:01.259Z,8.17
2017-04-17T08:10:03.692Z,7.25
2017-04-17T08:11:07.281Z,7.78
2017-04-17T08:12:08.441Z,7.37
2017-04-17T08:13:15.429Z,7.42
2017-04-17T08:14:17.171Z,6.72
2017-04-17T08:15:18.527Z,6.00
2017-04-17T08:16:22.520Z,6.45
2017-04-17T08:17:28.675Z,7.80
2017-04-17T08:18:32.109Z,7.20
2017-04-17T08:19:33.327Z,9.30
2017-04-17T08:20:37.987Z,7.20
2017-04-17T08:21:39.675Z,7.63
2017-04-17T08:22:40.986Z,6.88
2017-04-17T08:23:42.450Z,7.78
2017-04-17T08:24:43.738Z,7.23
2017-04-17T08:25:46.032Z,7.37
2017-04-17T08:26:47.210Z,7.10
2017-04-17T08:27:50.792Z,7.42
2017-04-17T08:28:52.072Z,6.72
2017-04-17T08:29:53.521Z,6.48
2017-04-17T08:30:56.527Z,6.92
2017-04-17T08:31:57.712Z,6.10
2017-04-17T08:32:59.057Z,6.72
2017-04-17T08:34:00.210Z,7.45
2017-04-17T08:35:01.485Z,6.18
2017-04-17T08:36:02.731Z,6.28
2017-04-17T08:37:04.003Z,6.33
2017-04-17T08:38:05.028Z,5.12
2017-04-17T08:39:11.373Z,5.68
2017-04-17T08:40:19.750Z,5.33
2017-04-17T08:41:25.267Z,5.02
2017-04-17T08:42:26.764Z,6.53
2017-04-17T08:43:28.336Z,5.73
2017-04-17T08:44:29.439Z,4.63
2017-04-17T08:45:30.800Z,5.22
2017-04-17T08:46:32.077Z,4.85
2017-04-17T08:47:33.142Z,4.92
2017-04-17T08:48:34.300Z,5.75
2017-04-17T08:49:35.855Z,5.02
2017-04-17T08:50:37.172Z,4.20
2017-04-17T08:51:38.720Z,4.47
2017-04-17T08:52:39.895Z,6.15
2017-04-17T08:53:41.345Z,4.90
2017-04-17T08:54:42.688Z,4.53
2017-04-17T08:55:43.901Z,4.27
2017-04-17T08:56:45.705Z,5.55
2017-04-17T08:57:46.854Z,4.67
2017-04-17T08:58:48.161Z,4.17
2017-04-17T08:59:49.421Z,3.88
2017-04-17T09:00:50.835Z,4.15
2017-04-17T09:01:52.248Z,3.78
2017-04-17T09:02:53.471Z,4.45
2017-04-17T09:03:54.737Z,4.68
2017-04-17T09:04:55.886Z,4.17
2017-04-17T09:05:57.266Z,4.37
2017-04-17T09:06:58.356Z,4.47
2017-04-17T09:07:59.899Z,3.55
2017-04-17T09:09:01.125Z,4.55
2017-04-17T09:10:02.122Z,3.82
2017-04-17T09:11:03.382Z,3.22
2017-04-17T09:12:04.646Z,4.32
2017-04-17T09:13:05.888Z,4.37
2017-04-17T09:14:07.149Z,4.55
2017-04-17T09:15:08.568Z,4.88
2017-04-17T09:16:09.786Z,4.80
2017-04-17T09:17:11.067Z,4.57
2017-04-17T09:18:12.479Z,5.52
2017-04-17T09:19:13.696Z,4.43
2017-04-17T09:20:14.945Z,4.63
2017-04-17T09:21:16.066Z,4.60
2017-04-17T09:22:17.520Z,4.38
2017-04-17T09:23:19.046Z,5.53
2017-04-17T09:24:20.494Z,5.17
2017-04-17T09:25:22.135Z,5.38
2017-04-17T09:26:23.394Z,4.27
2017-04-17T09:27:24.619Z,4.75
2017-04-17T09:28:25.789Z,4.92
2017-04-17T09:29:26.895Z,4.63
2017-04-17T09:30:27.961Z,5.45
2017-04-17T09:31:29.151Z,5.20
2017-04-17T09:32:30.345Z,5.28
2017-04-17T09:33:31.669Z,4.85
2017-04-17T09:34:33.152Z,5.37
2017-04-17T09:35:34.313Z,4.43
2017-04-17T09:36:35.428Z,3.80
2017-04-17T09:37:36.886Z,4.25
2017-04-17T09:38:38.024Z,5.48
2017-04-17T09:39:39.200Z,4.45
2017-04-17T09:40:40.650Z,4.62
2017-04-17T09:41:42.147Z,4.35
2017-04-17T09:42:43.915Z,3.87
2017-04-17T09:43:45.097Z,4.22
2017-04-17T09:44:47.151Z,3.63
2017-04-17T09:45:48.333Z,4.27
2017-04-17T09:46:49.305Z,3.37
2017-04-17T09:47:50.519Z,3.67
2017-04-17T09:48:51.916Z,3.45
2017-04-17T09:49:53.073Z,3.35
2017-04-17T09:50:54.300Z,4.40
2017-04-17T09:51:55.534Z,3.82
2017-04-17T09:52:56.658Z,3.87
2017-04-17T09:53:57.770Z,3.50
2017-04-17T09:54:59.153Z,4.95
2017-04-17T09:56:00.391Z,4.32
2017-04-17T09:57:01.673Z,4.37
2017-04-17T09:58:02.792Z,4.38
2017-04-17T09:59:04.013Z,4.23
2017-04-17T10:00:05.637Z,4.40
2017-04-17T10:01:06.643Z,5.18
2017-04-17T10:02:07.580Z,5.30
2017-04-17T10:03:08.849Z,5.65
2017-04-17T10:04:10.039Z,5.82
2017-04-17T10:05:11.192Z,6.02
2017-04-17T10:06:12.592Z,5.53
2017-04-17T10:07:13.676Z,5.87
2017-04-17T10:08:14.828Z,5.50
2017-04-17T10:09:16.353Z,5.48
2017-04-17T10:10:17.837Z,5.47
2017-04-17T10:11:19.228Z,5.95
2017-04-17T10:12:20.458Z,5.93
2017-04-17T10:13:21.601Z,4.55
2017-04-17T10:14:22.673Z,5.38
2017-04-17T10:15:23.824Z,6.25
2017-04-17T10:16:24.904Z,5.90
2017-04-17T10:17:25.812Z,4.23
2017-04-17T10:18:26.872Z,4.07
2017-04-17T10:19:27.853Z,5.47
2017-04-17T10:20:29.037Z,3.08
2017-04-17T10:21:30.167Z,5.20
2017-04-17T10:22:31.270Z,4.60
2017-04-17T10:23:32.499Z,4.20
2017-04-17T10:24:33.637Z,3.32
2017-04-17T10:25:34.727Z,5.05
2017-04-17T10:26:35.794Z,4.40
2017-04-17T10:27:36.913Z,3.25
2017-04-17T10:28:38.968Z,4.70
2017-04-17T10:29:40.261Z,3.87
2017-04-17T10:30:41.830Z,4.80
2017-04-17T10:31:42.927Z,4.25
2017-04-17T10:32:43.969Z,4.93
2017-04-17T10:33:45.101Z,4.03
2017-04-17T10:34:46.240Z,6.00
2017-04-17T10:35:47.378Z,5.47
2017-04-17T10:36:48.551Z,4.12
2017-04-17T10:37:49.681Z,5.57
2017-04-17T10:38:50.803Z,6.15
2017-04-17T10:39:52.028Z,5.35
2017-04-17T10:40:53.103Z,6.10
2017-04-17T10:41:54.189Z,4.75
2017-04-17T10:42:55.270Z,4.55
2017-04-17T10:43:56.349Z,5.43
2017-04-17T10:44:57.604Z,6.25
2017-04-17T10:45:58.779Z,6.98
2017-04-17T10:47:00.131Z,6.53
2017-04-17T10:48:01.323Z,6.72
2017-04-17T10:49:02.377Z,5.63
2017-04-17T10:50:03.584Z,6.78
2017-04-17T10:51:04.886Z,5.48
2017-04-17T10:52:06.061Z,5.45
2017-04-17T10:53:07.148Z,5.85
2017-04-17T10:54:08.389Z,5.47
2017-04-17T10:55:09.632Z,5.97
2017-04-17T10:56:10.720Z,5.85
2017-04-17T10:57:12.082Z,5.85
2017-04-17T10:58:13.231Z,5.50
2017-04-17T10:59:14.368Z,5.27
2017-04-17T11:00:15.561Z,6.05
2017-04-17T11:01:16.910Z,5.25
2017-04-17T11:02:18.620Z,5.52
2017-04-17T11:03:19.806Z,5.45
2017-04-17T11:04:21.039Z,6.48
2017-04-17T11:05:22.349Z,5.65
2017-04-17T11:06:23.644Z,5.73
2017-04-17T11:07:24.764Z,5.35
2017-04-17T11:08:25.973Z,5.98
2017-04-17T11:09:27.132Z,5.97
2017-04-17T11:10:28.448Z,5.05
2017-04-17T11:11:30.351Z,5.82
2017-04-17T11:12:31.342Z,5.53
2017-04-17T11:13:32.572Z,5.20
2017-04-17T11:14:33.892Z,5.25
2017-04-17T11:15:35.085Z,5.47
2017-04-17T11:16:36.379Z,5.70
2017-04-17T11:17:37.796Z,5.12
2017-04-17T11:18:38.894Z,5.90
2017-04-17T11:19:40.129Z,4.80
2017-04-17T11:20:41.671Z,5.37
2017-04-17T11:21:43.121Z,5.77
2017-04-17T11:22:44.383Z,5.53
2017-04-17T11:23:45.569Z,4.80
2017-04-17T11:24:46.515Z,4.57
2017-04-17T11:25:48.177Z,5.58
2017-04-17T11:26:49.712Z,4.15
2017-04-17T11:27:51.167Z,5.22
2017-04-17T11:28:52.768Z,4.45
2017-04-17T11:29:53.903Z,5.60
2017-04-17T11:30:55.015Z,4.57
2017-04-17T11:31:56.289Z,5.83
2017-04-17T11:32:57.626Z,4.67
2017-04-17T11:33:59.373Z,5.73
2017-04-17T11:35:00.793Z,4.82
2017-04-17T11:36:02.322Z,5.97
2017-04-17T11:37:03.487Z,4.17
2017-04-17T11:38:04.415Z,4.47
2017-04-17T11:39:05.963Z,5.47
2017-04-17T11:40:07.179Z,5.10
2017-04-17T11:41:08.465Z,5.18
2017-04-17T11:42:09.944Z,5.65
2017-04-17T11:43:11.033Z,4.60
2017-04-17T11:44:12.237Z,4.37
2017-04-17T11:45:13.242Z,5.27
2017-04-17T11:46:14.465Z,3.93
2017-04-17T11:47:15.598Z,4.53
2017-04-17T11:48:16.908Z,4.67
2017-04-17T11:49:18.109Z,4.00
2017-04-17T11:50:19.114Z,4.40
2017-04-17T11:51:20.343Z,3.97
2017-04-17T11:52:21.479Z,4.07
2017-04-17T11:53:22.590Z,4.60
2017-04-17T11:54:23.816Z,3.90
2017-04-17T11:55:24.983Z,4.48
2017-04-17T11:56:26.113Z,4.75
2017-04-17T11:57:27.427Z,4.25
2017-04-17T11:58:28.588Z,4.03
2017-04-17T11:59:29.797Z,4.68
2017-04-17T12:00:31.032Z,4.20
2017-04-17T12:01:31.986Z,3.62
2017-04-17T12:02:33.599Z,5.07
2017-04-17T12:03:34.685Z,4.67
2017-04-17T12:04:36.184Z,4.50
2017-04-17T12:05:37.575Z,3.93
2017-04-17T12:06:38.832Z,4.63
2017-04-17T12:07:40.084Z,3.95
2017-04-17T12:08:41.809Z,3.85
2017-04-17T12:09:43.052Z,3.77
2017-04-17T12:10:44.218Z,4.80
2017-04-17T12:11:45.287Z,4.57
2017-04-17T12:12:46.365Z,5.55
2017-04-17T12:13:47.566Z,4.72
2017-04-17T12:14:48.789Z,4.98
2017-04-17T12:15:50.096Z,4.27
2017-04-17T12:16:51.348Z,4.20
2017-04-17T12:17:52.483Z,3.78
2017-04-17T12:18:53.488Z,4.68
2017-04-17T12:19:54.617Z,4.53
2017-04-17T12:20:55.567Z,3.60
2017-04-17T12:21:56.752Z,4.78
2017-04-17T12:22:58.059Z,4.50
2017-04-17T12:23:59.422Z,4.37
2017-04-17T12:25:00.681Z,3.47
2017-04-17T12:26:02.145Z,4.73
2017-04-17T12:27:03.424Z,4.53
2017-04-17T12:28:04.623Z,4.57
2017-04-17T12:29:05.851Z,4.47
2017-04-17T12:30:07.359Z,4.57
2017-04-17T12:31:08.706Z,3.38
2017-04-17T12:32:10.766Z,3.52
2017-04-17T12:33:11.991Z,4.03
2017-04-17T12:34:13.160Z,4.23
2017-04-17T12:35:14.352Z,4.13
2017-04-17T12:36:15.326Z,4.32
2017-04-17T12:37:16.433Z,3.80
2017-04-17T12:38:17.754Z,4.37
2017-04-17T12:39:19.073Z,3.98
2017-04-17T12:40:20.328Z,3.10
2017-04-17T12:41:21.590Z,4.02
2017-04-17T12:42:23.097Z,3.88
2017-04-17T12:43:24.087Z,4.22
2017-04-17T12:44:25.201Z,4.42
2017-04-17T12:45:26.349Z,4.55
2017-04-17T12:46:27.527Z,4.52
2017-04-17T12:47:28.899Z,4.43
2017-04-17T12:48:30.359Z,3.48
2017-04-17T12:49:31.508Z,3.62
2017-04-17T12:50:32.807Z,3.93
2017-04-17T12:51:33.954Z,3.75
2017-04-17T12:52:35.938Z,4.50
2017-04-17T12:53:37.416Z,4.48
2017-04-17T12:54:38.667Z,4.82
2017-04-17T12:55:40.149Z,4.37
2017-04-17T12:56:41.867Z,4.68
2017-04-17T12:57:43.253Z,4.62
2017-04-17T12:58:44.618Z,4.75
2017-04-17T12:59:45.964Z,4.45
2017-04-17T13:00:47.498Z,4.73
2017-04-17T13:01:48.823Z,4.77
2017-04-17T13:02:50.238Z,3.63
2017-04-17T13:03:51.687Z,4.72
2017-04-17T13:04:53.088Z,4.52
2017-04-17T13:05:54.232Z,5.63
2017-04-17T13:06:55.326Z,5.25
2017-04-17T13:07:56.653Z,5.43
2017-04-17T13:08:58.157Z,5.60
2017-04-17T13:09:59.298Z,4.63
2017-04-17T13:11:01.460Z,5.45
2017-04-17T13:12:02.642Z,4.15
2017-04-17T13:13:03.954Z,4.70
2017-04-17T13:14:05.266Z,5.08
2017-04-17T13:15:06.481Z,5.08
2017-04-17T13:16:07.692Z,5.28
2017-04-17T13:17:09.084Z,3.98
2017-04-17T13:18:10.502Z,4.98
2017-04-17T13:19:11.799Z,4.62
2017-04-17T13:20:13.011Z,4.08
2017-04-17T13:21:14.192Z,4.03
2017-04-17T13:22:15.398Z,3.95
2017-04-17T13:23:16.675Z,4.07
2017-04-17T13:24:18.285Z,4.22
2017-04-17T13:25:19.721Z,4.47
2017-04-17T13:26:20.928Z,4.32
2017-04-17T13:27:22.199Z,5.20
2017-04-17T13:28:23.334Z,4.62
2017-04-17T13:29:24.547Z,4.42
2017-04-17T13:30:25.717Z,4.58
2017-04-17T13:31:27.860Z,4.62
2017-04-17T13:32:29.231Z,4.22
2017-04-17T13:33:30.178Z,4.85
2017-04-17T13:34:31.375Z,5.15
2017-04-17T13:35:32.790Z,4.62
2017-04-17T13:36:33.852Z,4.62